Terminal Aerodrome Forecast
Issued by NWS St Louis, MO

Home | Current Version | Previous Version | Text Only | Print | Product List | Glossary On
Versions: 1 2 3 4 5 6 7 8 9 10 11 12 13 14 15 16 17 18 19 20 21 22 23
000
FTUS43 KLSX 010500
TAFCOU
TAF
KCOU 010536Z 0106/0206 12005KT 2SM -SN OVC025
      TEMPO 0106/0110 1SM -SN BR OVC010
     FM011000 VRB04KT 4SM -SN OVC008
     FM011500 30006KT 6SM -SN OVC010
     FM011800 31008KT P6SM OVC015
     FM020000 32006KT P6SM SCT020 BKN120=

USA.gov is the U.S. government's official web portal to all federal, state and local government web resources and services.